Time;durP1;ratioP1;P1;durP2;ratioP2;P2;SDS_P1;SDS_P2;PMS_P1;PMS_P2;Temp;Humidity;BMP_temperature;BMP_pressure;BME280_temperature;BME280_humidity;BME280_pressure;Samples;Min_cycle;Max_cycle;Signal;HPM_P1;HPM_P2
2023/11/28 00:00:39;;;;;;;2.38;1.95;;;3.90;99.90;;;;;;4950393;29;20572;-85
2023/11/28 00:03:05;;;;;;;0.32;0.32;;;3.90;99.90;;;;;;4942784;29;20039;-85
2023/11/28 00:05:31;;;;;;;0.45;0.45;;;3.90;99.90;;;;;;4948991;29;20035;-85
2023/11/28 00:08:00;;;;;;;0.28;0.28;;;3.90;99.90;;;;;;4949096;29;20377;-85
2023/11/28 00:10:26;;;;;;;0.10;0.10;;;3.90;99.90;;;;;;4945628;29;20031;-85
2023/11/28 00:12:52;;;;;;;0.60;0.57;;;3.90;99.90;;;;;;4947078;29;20027;-90
2023/11/28 00:15:19;;;;;;;0.38;0.38;;;3.90;99.90;;;;;;4933486;29;20036;-86
2023/11/28 00:17:45;;;;;;;0.35;0.35;;;3.90;99.90;;;;;;4951816;29;20503;-85
2023/11/28 00:20:11;;;;;;;0.30;0.30;;;3.90;99.90;;;;;;4950026;29;20047;-85
2023/11/28 00:22:37;;;;;;;0.47;0.47;;;3.90;99.90;;;;;;4941184;29;20039;-85
2023/11/28 00:25:04;;;;;;;1.20;1.15;;;3.90;99.90;;;;;;4940971;29;20047;-85
2023/11/28 00:27:30;;;;;;;1.45;0.75;;;4.00;99.90;;;;;;4949666;29;20378;-85
2023/11/28 00:29:56;;;;;;;2.22;1.83;;;4.00;99.90;;;;;;4948446;29;20050;-85
2023/11/28 00:32:22;;;;;;;2.25;1.50;;;4.00;99.90;;;;;;4949623;29;20028;-85
2023/11/28 00:34:49;;;;;;;1.00;0.93;;;4.00;99.90;;;;;;4930150;29;20054;-85
2023/11/28 00:37:15;;;;;;;2.38;1.92;;;4.00;99.90;;;;;;4934957;29;20031;-84
2023/11/28 00:39:41;;;;;;;1.75;1.35;;;4.00;99.90;;;;;;4947463;29;20031;-85
2023/11/28 00:42:07;;;;;;;1.15;0.95;;;4.00;99.90;;;;;;4944621;29;20046;-84
2023/11/28 00:44:34;;;;;;;1.70;1.60;;;4.00;99.90;;;;;;4927771;29;20043;-85
2023/11/28 00:47:00;;;;;;;1.52;1.42;;;4.10;99.90;;;;;;4944446;29;20048;-84
2023/11/28 00:49:26;;;;;;;5.78;1.40;;;4.10;99.90;;;;;;4934693;29;20066;-85
2023/11/28 00:51:53;;;;;;;0.50;0.50;;;4.10;99.90;;;;;;4932732;29;20054;-84
2023/11/28 00:54:20;;;;;;;1.13;0.70;;;4.10;99.90;;;;;;4943450;29;20043;-85
2023/11/28 00:56:46;;;;;;;2.08;1.60;;;4.10;99.90;;;;;;4940378;29;20036;-84
2023/11/28 00:59:13;;;;;;;1.75;1.65;;;4.10;99.90;;;;;;4946081;29;20047;-84
2023/11/28 01:01:39;;;;;;;3.85;3.33;;;4.10;99.90;;;;;;4930541;29;20484;-84
2023/11/28 01:04:05;;;;;;;5.95;3.38;;;4.10;99.90;;;;;;4944253;29;20043;-83
2023/11/28 01:06:31;;;;;;;2.30;0.75;;;4.10;99.90;;;;;;4955987;29;20058;-85
2023/11/28 01:08:57;;;;;;;1.55;1.23;;;4.10;99.90;;;;;;4948403;29;20058;-84
2023/11/28 01:11:24;;;;;;;2.10;2.00;;;4.10;99.90;;;;;;4950875;28;20039;-83
2023/11/28 01:13:50;;;;;;;1.45;1.35;;;4.10;99.90;;;;;;4952714;28;20051;-85
2023/11/28 01:16:16;;;;;;;2.53;2.33;;;4.10;99.90;;;;;;4937828;29;20043;-84
2023/11/28 01:18:43;;;;;;;0.73;0.73;;;4.10;99.90;;;;;;4958854;29;20360;-85
2023/11/28 01:21:09;;;;;;;3.65;3.00;;;4.10;99.90;;;;;;4969674;29;20031;-85
2023/11/28 01:23:36;;;;;;;1.15;1.15;;;4.10;99.90;;;;;;4935832;29;20050;-85
2023/11/28 01:26:02;;;;;;;4.22;2.42;;;4.20;99.90;;;;;;4950151;28;20039;-85
2023/11/28 01:28:28;;;;;;;0.57;0.57;;;4.20;99.90;;;;;;4947712;29;20059;-87
2023/11/28 01:30:56;;;;;;;1.05;1.00;;;4.20;99.90;;;;;;4950596;29;20046;-86
2023/11/28 01:33:22;;;;;;;0.63;0.60;;;4.20;99.90;;;;;;4926044;29;20044;-84
2023/11/28 01:35:48;;;;;;;0.95;0.95;;;4.20;99.90;;;;;;4945402;29;20043;-86
2023/11/28 01:38:14;;;;;;;1.88;1.77;;;4.20;99.90;;;;;;4943226;29;20046;-90
2023/11/28 01:40:40;;;;;;;0.95;0.77;;;4.20;99.90;;;;;;4928556;29;20043;-90
2023/11/28 01:43:06;;;;;;;2.85;1.55;;;4.20;99.90;;;;;;4947495;29;20031;-90
2023/11/28 01:45:32;;;;;;;1.48;1.38;;;4.20;99.90;;;;;;4951742;29;20035;-88
2023/11/28 01:47:59;;;;;;;1.75;1.13;;;4.20;99.90;;;;;;4930214;29;20040;-87
2023/11/28 01:50:25;;;;;;;4.07;2.65;;;4.20;99.90;;;;;;4947392;29;20040;-88
2023/11/28 01:52:53;;;;;;;2.25;2.10;;;4.20;99.90;;;;;;4926854;29;20043;-92
2023/11/28 01:55:19;;;;;;;0.80;0.80;;;4.20;99.90;;;;;;4930779;29;20040;-89
2023/11/28 01:57:47;;;;;;;0.73;0.65;;;4.20;99.90;;;;;;4933756;29;20038;-92
2023/11/28 02:00:13;;;;;;;2.30;2.05;;;4.20;99.90;;;;;;4955000;29;20027;-89
2023/11/28 02:02:40;;;;;;;1.25;0.90;;;4.20;99.90;;;;;;4961357;29;20039;-86
2023/11/28 02:05:07;;;;;;;1.80;1.13;;;4.20;99.90;;;;;;4938375;29;20040;-89
2023/11/28 02:07:33;;;;;;;0.98;0.65;;;4.30;99.90;;;;;;4949772;29;20031;-90
2023/11/28 02:10:00;;;;;;;0.82;0.60;;;4.30;99.90;;;;;;4949567;29;20031;-90
2023/11/28 02:12:26;;;;;;;0.50;0.50;;;4.30;99.90;;;;;;4946982;29;20038;-90
2023/11/28 02:14:53;;;;;;;0.28;0.28;;;4.30;99.90;;;;;;4929862;29;20054;-89
2023/11/28 02:17:19;;;;;;;1.75;0.47;;;4.30;99.90;;;;;;4936400;29;20047;-88
2023/11/28 02:19:50;;;;;;;0.50;0.50;;;4.30;99.90;;;;;;4935063;29;20054;-92
2023/11/28 02:22:17;;;;;;;0.35;0.35;;;4.30;99.90;;;;;;4948553;28;20046;-88
2023/11/28 02:24:49;;;;;;;0.32;0.32;;;4.30;99.90;;;;;;4954760;29;20042;-92
2023/11/28 02:27:15;;;;;;;0.17;0.17;;;4.30;99.90;;;;;;4953801;29;20031;-93
2023/11/28 02:29:46;;;;;;;0.10;0.10;;;4.30;99.90;;;;;;4951484;29;20231;-91
2023/11/28 02:32:12;;;;;;;0.45;0.45;;;4.30;99.90;;;;;;4948173;29;20039;-84
2023/11/28 02:34:39;;;;;;;0.10;0.10;;;4.30;99.90;;;;;;4946193;29;20039;-86
2023/11/28 02:37:07;;;;;;;0.10;0.10;;;4.40;99.90;;;;;;4934251;28;20043;-87
2023/11/28 02:39:33;;;;;;;0.10;0.10;;;4.30;99.90;;;;;;4951409;28;20468;-87
2023/11/28 02:41:59;;;;;;;0.10;0.10;;;4.30;99.90;;;;;;4953966;28;20035;-88
2023/11/28 02:44:25;;;;;;;0.13;0.13;;;4.30;99.90;;;;;;4949545;29;20036;-86
2023/11/28 02:46:51;;;;;;;0.10;0.10;;;4.30;99.90;;;;;;4930883;29;20050;-88
2023/11/28 02:49:18;;;;;;;0.10;0.10;;;4.30;99.90;;;;;;4950030;29;20043;-89
2023/11/28 02:51:44;;;;;;;0.85;0.68;;;4.30;99.90;;;;;;4947514;28;20601;-87
2023/11/28 02:54:10;;;;;;;0.10;0.10;;;4.30;99.90;;;;;;4945377;29;20046;-87
2023/11/28 02:56:36;;;;;;;0.10;0.10;;;4.30;99.90;;;;;;4953093;29;20044;-87
2023/11/28 02:59:02;;;;;;;0.10;0.10;;;4.30;99.90;;;;;;4952251;29;20039;-87
2023/11/28 03:01:29;;;;;;;0.10;0.10;;;4.30;99.90;;;;;;4952411;29;20039;-87
2023/11/28 03:03:55;;;;;;;0.32;0.32;;;4.30;99.90;;;;;;4951007;29;20031;-86
2023/11/28 03:06:21;;;;;;;0.10;0.10;;;4.30;99.90;;;;;;4930912;29;20043;-86
2023/11/28 03:08:47;;;;;;;0.20;0.20;;;4.30;99.90;;;;;;4948069;29;20048;-87
2023/11/28 03:11:14;;;;;;;0.30;0.30;;;4.30;99.90;;;;;;4931885;29;20066;-87
2023/11/28 03:13:40;;;;;;;0.10;0.10;;;4.30;99.90;;;;;;4947980;29;20034;-86
2023/11/28 03:16:07;;;;;;;0.20;0.20;;;4.30;99.90;;;;;;4933294;29;20050;-88
2023/11/28 03:18:33;;;;;;;0.32;0.32;;;4.30;99.90;;;;;;4919400;29;20048;-87
2023/11/28 03:20:59;;;;;;;0.20;0.20;;;4.30;99.90;;;;;;4915574;29;20040;-88
2023/11/28 03:23:25;;;;;;;0.10;0.10;;;4.30;99.90;;;;;;4910559;29;20445;-84
2023/11/28 03:25:51;;;;;;;0.10;0.10;;;4.30;99.90;;;;;;4905462;29;20363;-88
2023/11/28 03:28:17;;;;;;;0.10;0.10;;;4.30;99.90;;;;;;4921961;29;20493;-88
2023/11/28 03:30:44;;;;;;;0.10;0.10;;;4.40;99.90;;;;;;4909303;29;20102;-89
2023/11/28 03:33:10;;;;;;;0.10;0.10;;;4.40;99.90;;;;;;4914080;29;20039;-88
2023/11/28 03:35:36;;;;;;;0.20;0.20;;;4.40;99.90;;;;;;4929638;29;20036;-89
2023/11/28 03:38:03;;;;;;;0.10;0.10;;;4.40;99.90;;;;;;4910177;29;20032;-89
2023/11/28 03:40:29;;;;;;;0.10;0.10;;;4.50;99.90;;;;;;4926634;29;20044;-88
2023/11/28 03:42:55;;;;;;;0.90;0.45;;;4.50;99.90;;;;;;4912739;29;20036;-89
2023/11/28 03:45:21;;;;;;;0.45;0.25;;;4.50;99.90;;;;;;4914052;29;20037;-87
2023/11/28 03:47:48;;;;;;;0.30;0.30;;;4.60;99.90;;;;;;4904944;29;20040;-87
2023/11/28 03:50:14;;;;;;;0.85;0.85;;;4.70;99.90;;;;;;4935894;29;20040;-89
2023/11/28 03:52:41;;;;;;;0.10;0.10;;;4.70;99.90;;;;;;4932608;29;20039;-84
2023/11/28 03:55:09;;;;;;;0.10;0.10;;;4.80;99.90;;;;;;4915334;29;20036;-84
2023/11/28 03:57:35;;;;;;;0.22;0.22;;;4.80;99.90;;;;;;4907327;29;20037;-83
2023/11/28 04:00:03;;;;;;;0.10;0.10;;;4.80;99.90;;;;;;4907903;29;20040;-83
2023/11/28 04:02:29;;;;;;;0.20;0.20;;;4.80;99.90;;;;;;4891569;29;20059;-82
2023/11/28 04:04:55;;;;;;;0.47;0.47;;;4.80;99.90;;;;;;4909761;29;20051;-82
2023/11/28 04:07:21;;;;;;;0.25;0.25;;;4.80;99.90;;;;;;4910489;29;20106;-82
2023/11/28 04:09:47;;;;;;;0.40;0.40;;;4.70;99.90;;;;;;4912199;29;20048;-90
2023/11/28 04:12:13;;;;;;;0.47;0.47;;;4.60;99.90;;;;;;4928683;29;20033;-82
2023/11/28 04:14:40;;;;;;;0.10;0.10;;;4.50;99.90;;;;;;4916605;29;20047;-83
2023/11/28 04:17:07;;;;;;;0.10;0.10;;;4.40;99.90;;;;;;4926506;29;20045;-83
2023/11/28 04:19:34;;;;;;;0.10;0.10;;;4.30;99.90;;;;;;4927420;29;20051;-81
2023/11/28 04:22:00;;;;;;;0.30;0.30;;;4.20;64.30;;;;;;4930960;29;20047;-82
2023/11/28 04:24:26;;;;;;;0.17;0.17;;;4.10;14.60;;;;;;4930900;29;20058;-86
2023/11/28 04:26:53;;;;;;;0.10;0.10;;;4.10;3.40;;;;;;4938091;29;20047;-88
2023/11/28 04:29:21;;;;;;;0.17;0.17;;;4.00;1.00;;;;;;4951830;29;20047;-85
2023/11/28 04:31:47;;;;;;;0.10;0.10;;;3.90;1.00;;;;;;4950813;29;20039;-89
2023/11/28 04:34:14;;;;;;;0.10;0.10;;;3.80;1.00;;;;;;4935835;29;20050;-87
2023/11/28 04:36:41;;;;;;;0.10;0.10;;;3.70;1.00;;;;;;4951049;29;20035;-85
2023/11/28 04:39:07;;;;;;;0.10;0.10;;;3.70;1.00;;;;;;4946624;28;20035;-81
2023/11/28 04:41:35;;;;;;;0.10;0.10;;;3.60;1.00;;;;;;4929093;29;20047;-83
2023/11/28 04:44:01;;;;;;;0.10;0.10;;;3.60;1.00;;;;;;4943195;29;20058;-85
2023/11/28 04:46:27;;;;;;;0.10;0.10;;;3.50;1.00;;;;;;4936413;29;20034;-91
2023/11/28 04:48:54;;;;;;;0.10;0.10;;;3.40;1.00;;;;;;4956392;29;20486;-83
2023/11/28 04:51:21;;;;;;;0.10;0.10;;;3.40;1.00;;;;;;4952935;29;20404;-83
2023/11/28 04:53:47;;;;;;;0.20;0.20;;;3.40;1.00;;;;;;4951034;29;20050;-84
2023/11/28 04:56:13;;;;;;;0.10;0.10;;;3.30;1.00;;;;;;4933033;29;20389;-84
2023/11/28 04:58:42;;;;;;;0.10;0.10;;;3.30;1.00;;;;;;4927686;29;20481;-83
2023/11/28 05:01:09;;;;;;;0.13;0.13;;;3.20;1.00;;;;;;4948630;29;20035;-82
2023/11/28 05:03:36;;;;;;;0.10;0.10;;;3.20;1.00;;;;;;4947404;29;20035;-91
2023/11/28 05:06:02;;;;;;;0.10;0.10;;;3.10;1.00;;;;;;4936928;29;20047;-88
2023/11/28 05:08:28;;;;;;;0.10;0.10;;;3.10;1.00;;;;;;4937888;29;20051;-87
2023/11/28 05:10:58;;;;;;;0.20;0.20;;;3.10;1.00;;;;;;4951786;28;20046;-92
2023/11/28 05:13:25;;;;;;;0.10;0.10;;;3.10;1.00;;;;;;4953152;29;20061;-79
2023/11/28 05:15:51;;;;;;;0.10;0.10;;;3.10;1.00;;;;;;4928140;29;20423;-84
2023/11/28 05:18:18;;;;;;;0.13;0.13;;;2.90;1.00;;;;;;4933534;29;20052;-82
2023/11/28 05:20:45;;;;;;;0.10;0.10;;;2.70;1.00;;;;;;4952753;29;20050;-89
2023/11/28 05:23:11;;;;;;;0.10;0.10;;;2.50;90.50;;;;;;4937054;29;20513;-82
2023/11/28 05:25:39;;;;;;;0.20;0.20;;;2.50;99.90;;;;;;4942054;29;20054;-82
2023/11/28 05:28:05;;;;;;;0.95;0.80;;;2.40;99.90;;;;;;4928327;29;20046;-82
2023/11/28 05:30:32;;;;;;;0.35;0.35;;;2.30;99.90;;;;;;4929418;29;20070;-84
2023/11/28 05:32:58;;;;;;;0.10;0.10;;;2.20;99.90;;;;;;4928522;29;20039;-82
2023/11/28 05:35:25;;;;;;;0.10;0.10;;;2.20;99.90;;;;;;4937565;29;20488;-82
2023/11/28 05:37:51;;;;;;;0.22;0.22;;;2.20;99.90;;;;;;4932331;29;20136;-89
2023/11/28 05:40:18;;;;;;;0.68;0.32;;;2.20;99.90;;;;;;4946561;29;20058;-89
2023/11/28 05:42:44;;;;;;;0.22;0.22;;;2.20;99.90;;;;;;4929631;29;20132;-87
2023/11/28 05:45:10;;;;;;;0.10;0.10;;;2.10;99.90;;;;;;4928570;29;20058;-88
2023/11/28 05:47:39;;;;;;;0.10;0.10;;;2.00;99.90;;;;;;4932163;29;20047;-82
2023/11/28 05:50:07;;;;;;;0.10;0.10;;;1.90;99.90;;;;;;4935997;29;20055;-87
2023/11/28 05:52:36;;;;;;;0.10;0.10;;;1.90;99.90;;;;;;4945521;29;20120;-88
2023/11/28 05:55:02;;;;;;;0.30;0.30;;;1.90;99.90;;;;;;4941739;28;20043;-85
2023/11/28 05:57:29;;;;;;;0.10;0.10;;;1.80;99.90;;;;;;4948236;29;20466;-88
2023/11/28 05:59:55;;;;;;;0.17;0.17;;;1.80;99.90;;;;;;4945841;29;20055;-85
2023/11/28 06:02:23;;;;;;;0.10;0.10;;;1.80;99.90;;;;;;4951678;28;20477;-86
2023/11/28 06:04:49;;;;;;;0.10;0.10;;;1.70;99.90;;;;;;4961874;28;20039;-85
2023/11/28 06:07:15;;;;;;;0.40;0.40;;;1.70;99.90;;;;;;4935296;29;20039;-84
2023/11/28 06:09:41;;;;;;;0.10;0.10;;;1.70;99.90;;;;;;4951452;28;20070;-91
2023/11/28 06:12:08;;;;;;;0.10;0.10;;;1.60;99.90;;;;;;4950267;29;20476;-91
2023/11/28 06:14:36;;;;;;;0.10;0.10;;;1.60;99.90;;;;;;4949998;29;20043;-85
2023/11/28 06:17:03;;;;;;;0.10;0.10;;;1.60;99.90;;;;;;4945522;28;20047;-86
2023/11/28 06:19:29;;;;;;;0.10;0.10;;;1.60;99.90;;;;;;4934233;29;20447;-80
2023/11/28 06:21:55;;;;;;;0.10;0.10;;;1.60;99.90;;;;;;4950620;28;20820;-79
2023/11/28 06:24:21;;;;;;;0.17;0.17;;;1.60;99.90;;;;;;4934246;29;20119;-82
2023/11/28 06:26:47;;;;;;;0.50;0.50;;;1.60;99.90;;;;;;4947316;29;20023;-81
2023/11/28 06:29:13;;;;;;;0.20;0.20;;;1.70;99.90;;;;;;4940487;29;20043;-85
2023/11/28 06:31:40;;;;;;;0.10;0.10;;;1.70;99.90;;;;;;4942570;29;20496;-85
2023/11/28 06:34:06;;;;;;;0.10;0.10;;;1.70;99.90;;;;;;4934813;28;20036;-82
2023/11/28 06:36:34;;;;;;;0.60;0.40;;;1.70;99.90;;;;;;4935794;29;20058;-84
2023/11/28 06:39:01;;;;;;;0.10;0.10;;;1.80;99.90;;;;;;4932124;29;20603;-87
2023/11/28 06:41:27;;;;;;;0.10;0.10;;;1.80;99.90;;;;;;4933419;29;20047;-87
2023/11/28 06:43:54;;;;;;;0.10;0.10;;;1.80;99.90;;;;;;4947445;28;20039;-84
2023/11/28 06:46:21;;;;;;;0.03;0.03;;;1.90;99.90;;;;;;4927113;29;20050;-91
2023/11/28 06:48:48;;;;;;;0.10;0.10;;;1.90;99.90;;;;;;4946231;29;20070;-84
2023/11/28 06:51:15;;;;;;;0.10;0.10;;;1.90;99.90;;;;;;4939184;29;20031;-82
2023/11/28 06:53:41;;;;;;;0.10;0.10;;;1.90;99.90;;;;;;4944435;29;20035;-78
2023/11/28 06:56:09;;;;;;;0.00;0.00;;;2.00;99.90;;;;;;4927389;29;20050;-80
2023/11/28 06:58:35;;;;;;;0.10;0.10;;;2.00;99.90;;;;;;4943575;29;20453;-83
2023/11/28 07:01:01;;;;;;;0.13;0.13;;;2.00;99.90;;;;;;4941248;28;20074;-83
2023/11/28 07:03:31;;;;;;;0.10;0.10;;;2.00;99.90;;;;;;4952088;29;20027;-81
2023/11/28 07:05:58;;;;;;;0.13;0.13;;;2.00;99.90;;;;;;4948323;29;20048;-79
2023/11/28 07:08:24;;;;;;;0.10;0.10;;;2.00;99.90;;;;;;4948915;29;20035;-80
2023/11/28 07:10:51;;;;;;;0.10;0.10;;;2.00;99.90;;;;;;4942315;29;20047;-77
2023/11/28 07:13:17;;;;;;;0.10;0.10;;;2.00;99.90;;;;;;4944593;29;20039;-81
2023/11/28 07:15:43;;;;;;;0.13;0.13;;;2.00;99.90;;;;;;4930342;28;20040;-84
2023/11/28 07:18:10;;;;;;;0.30;0.25;;;1.90;99.90;;;;;;4954957;28;20050;-84
2023/11/28 07:20:37;;;;;;;0.10;0.10;;;1.90;99.90;;;;;;4940635;28;20048;-80
2023/11/28 07:23:03;;;;;;;0.10;0.10;;;1.90;99.90;;;;;;4956562;28;20035;-79
2023/11/28 07:25:30;;;;;;;0.10;0.10;;;1.90;99.90;;;;;;4958544;28;20059;-84
2023/11/28 07:27:56;;;;;;;0.00;0.00;;;1.90;99.90;;;;;;4957207;28;20038;-80
2023/11/28 07:30:22;;;;;;;0.10;0.10;;;1.80;99.90;;;;;;4951196;29;20035;-81
2023/11/28 07:32:48;;;;;;;0.10;0.10;;;1.80;99.90;;;;;;4952918;28;20392;-82
2023/11/28 07:35:14;;;;;;;0.10;0.10;;;1.90;99.90;;;;;;4928383;28;20043;-82
2023/11/28 07:37:41;;;;;;;0.10;0.10;;;1.90;99.90;;;;;;4949296;28;20843;-78
2023/11/28 07:40:08;;;;;;;0.10;0.10;;;1.90;99.90;;;;;;4949037;29;20385;-79
2023/11/28 07:42:35;;;;;;;0.20;0.20;;;1.90;99.90;;;;;;4945598;29;20039;-82
2023/11/28 07:45:01;;;;;;;0.10;0.10;;;1.90;99.90;;;;;;4938363;29;20040;-82
2023/11/28 07:47:28;;;;;;;0.05;0.05;;;1.90;99.90;;;;;;4950229;29;20042;-80
2023/11/28 07:49:54;;;;;;;0.00;0.00;;;1.90;99.90;;;;;;4930629;29;20058;-87
2023/11/28 07:52:21;;;;;;;0.10;0.10;;;1.90;99.90;;;;;;4948137;29;20042;-83
2023/11/28 07:54:47;;;;;;;1.20;0.90;;;1.90;99.90;;;;;;4942141;29;20480;-87
2023/11/28 07:57:13;;;;;;;0.50;0.30;;;1.90;99.90;;;;;;4950490;29;20039;-81
2023/11/28 07:59:42;;;;;;;0.73;0.73;;;1.90;99.90;;;;;;4930743;29;20058;-80
2023/11/28 08:02:09;;;;;;;0.13;0.13;;;1.90;99.90;;;;;;4950495;29;20465;-83
2023/11/28 08:04:35;;;;;;;0.10;0.10;;;1.90;99.90;;;;;;4942616;29;20050;-81
2023/11/28 08:07:01;;;;;;;0.30;0.30;;;1.90;99.90;;;;;;4928465;29;20044;-83
2023/11/28 08:09:28;;;;;;;0.20;0.20;;;1.90;99.90;;;;;;4930571;29;20079;-82
2023/11/28 08:11:54;;;;;;;0.43;0.30;;;1.90;99.90;;;;;;4948866;29;20023;-81
2023/11/28 08:14:21;;;;;;;0.10;0.10;;;1.90;99.90;;;;;;4945431;29;20039;-82
2023/11/28 08:16:47;;;;;;;0.10;0.10;;;1.80;99.90;;;;;;4945683;29;20404;-83
2023/11/28 08:19:13;;;;;;;0.10;0.10;;;1.80;99.90;;;;;;4945387;29;20056;-83
2023/11/28 08:21:39;;;;;;;0.10;0.10;;;1.80;99.90;;;;;;4945509;29;20039;-83
2023/11/28 08:24:06;;;;;;;0.20;0.20;;;1.80;99.90;;;;;;4947210;29;20039;-81
2023/11/28 08:26:32;;;;;;;0.40;0.40;;;1.80;99.90;;;;;;4938864;29;20055;-82
2023/11/28 08:28:58;;;;;;;0.20;0.20;;;1.80;99.90;;;;;;4929809;29;20048;-84
2023/11/28 08:31:24;;;;;;;0.08;0.08;;;1.80;99.90;;;;;;4948184;29;20039;-84
2023/11/28 08:33:51;;;;;;;0.10;0.10;;;1.80;99.90;;;;;;4947546;29;20043;-83
2023/11/28 08:36:17;;;;;;;0.10;0.10;;;1.90;99.90;;;;;;4944040;29;20028;-80
2023/11/28 08:38:43;;;;;;;0.08;0.08;;;1.90;99.90;;;;;;4947521;29;20031;-83
2023/11/28 08:41:10;;;;;;;0.40;0.28;;;1.90;99.90;;;;;;4952857;28;20051;-85
2023/11/28 08:43:37;;;;;;;0.00;0.00;;;1.90;99.90;;;;;;4954609;29;20027;-88
2023/11/28 08:46:03;;;;;;;0.10;0.10;;;1.90;99.90;;;;;;4931320;29;20445;-80
2023/11/28 08:48:31;;;;;;;0.10;0.10;;;1.80;99.90;;;;;;4923982;29;20043;-83
2023/11/28 08:50:58;;;;;;;0.30;0.30;;;1.80;99.90;;;;;;4946284;29;20484;-82
2023/11/28 08:53:24;;;;;;;0.10;0.10;;;1.80;99.90;;;;;;4945633;29;20039;-85
2023/11/28 08:55:50;;;;;;;0.40;0.40;;;1.90;99.90;;;;;;4942289;29;20038;-84
2023/11/28 08:58:16;;;;;;;0.10;0.10;;;1.90;99.90;;;;;;4949077;29;20050;-83
2023/11/28 09:00:43;;;;;;;0.10;0.10;;;1.80;99.90;;;;;;4932904;29;20411;-86
2023/11/28 09:03:09;;;;;;;0.10;0.10;;;1.90;99.90;;;;;;4929709;29;20456;-86
2023/11/28 09:05:35;;;;;;;1.58;0.70;;;1.80;99.90;;;;;;4930936;29;20031;-85
2023/11/28 09:08:01;;;;;;;1.98;1.20;;;1.80;99.90;;;;;;4941857;29;20397;-79
2023/11/28 09:10:27;;;;;;;0.10;0.10;;;1.80;99.90;;;;;;4943638;29;20051;-80
2023/11/28 09:12:53;;;;;;;0.00;0.00;;;1.80;99.90;;;;;;4948845;29;20023;-83
2023/11/28 09:15:20;;;;;;;0.10;0.10;;;1.80;99.90;;;;;;4929553;29;20405;-81
2023/11/28 09:17:46;;;;;;;0.10;0.10;;;1.70;98.60;;;;;;4926603;29;20051;-83
2023/11/28 09:20:12;;;;;;;0.32;0.32;;;1.80;84.00;;;;;;4940758;28;20048;-82
2023/11/28 09:22:40;;;;;;;0.10;0.10;;;1.70;38.60;;;;;;4941736;28;20054;-84
2023/11/28 09:25:09;;;;;;;0.10;0.10;;;1.70;47.40;;;;;;4943767;29;20023;-81
2023/11/28 09:27:35;;;;;;;0.10;0.10;;;1.70;28.30;;;;;;4931649;29;20043;-82
2023/11/28 09:30:01;;;;;;;0.30;0.30;;;1.60;36.20;;;;;;4947979;29;20058;-89
2023/11/28 09:32:28;;;;;;;0.20;0.20;;;1.60;55.80;;;;;;4944755;29;20039;-82
2023/11/28 09:35:01;;;;;;;0.30;0.30;;;1.60;84.00;;;;;;4943563;29;20081;-88
2023/11/28 09:37:35;;;;;;;;;;;1.60;73.60;;;;;;4931089;29;20050;-87
2023/11/28 09:40:07;;;;;;;0.10;0.10;;;1.60;97.50;;;;;;4943831;29;19918;-88
2023/11/28 09:42:37;;;;;;;0.75;0.75;;;1.60;99.90;;;;;;4942463;29;20034;-87
2023/11/28 09:45:07;;;;;;;0.20;0.20;;;1.50;99.90;;;;;;4942977;29;20104;-89
2023/11/28 09:47:35;;;;;;;0.13;0.13;;;1.60;99.90;;;;;;4935610;29;20042;-86
2023/11/28 09:50:05;;;;;;;0.22;0.22;;;1.50;99.90;;;;;;4929020;29;20095;-86
2023/11/28 09:52:35;;;;;;;0.20;0.20;;;1.60;99.90;;;;;;4936214;29;20055;-88
2023/11/28 09:55:03;;;;;;;0.10;0.10;;;1.50;99.90;;;;;;4939869;29;20396;-87
2023/11/28 09:57:32;;;;;;;0.32;0.32;;;1.50;99.90;;;;;;4943380;29;20035;-84
2023/11/28 09:59:59;;;;;;;0.10;0.10;;;1.50;99.90;;;;;;4945593;29;20043;-84
2023/11/28 10:02:28;;;;;;;0.20;0.20;;;1.40;99.90;;;;;;4945128;29;20397;-84
2023/11/28 10:04:55;;;;;;;1.17;1.08;;;1.50;99.90;;;;;;4923791;29;20048;-83
2023/11/28 10:07:31;;;;;;;0.10;0.10;;;1.40;99.90;;;;;;4941242;29;20044;-84
2023/11/28 10:10:04;;;;;;;0.10;0.10;;;1.40;99.90;;;;;;4942997;29;20055;-82
2023/11/28 10:12:31;;;;;;;0.00;0.00;;;1.40;99.90;;;;;;4929367;29;20047;-82
2023/11/28 10:14:58;;;;;;;0.10;0.10;;;1.40;99.90;;;;;;4937733;29;20039;-85
2023/11/28 10:17:25;;;;;;;0.25;0.25;;;1.40;99.90;;;;;;4941849;28;20391;-83
2023/11/28 10:19:51;;;;;;;0.22;0.22;;;1.50;99.90;;;;;;4924087;29;20063;-85
2023/11/28 10:22:18;;;;;;;0.40;0.40;;;1.50;99.90;;;;;;4901482;29;20053;-83
2023/11/28 10:24:45;;;;;;;0.50;0.50;;;1.50;99.90;;;;;;4909485;29;20044;-84
2023/11/28 10:27:12;;;;;;;0.17;0.17;;;1.50;99.90;;;;;;4919626;29;20056;-84
2023/11/28 10:29:39;;;;;;;0.20;0.20;;;1.50;99.90;;;;;;4908845;29;20048;-86
2023/11/28 10:32:07;;;;;;;1.13;0.93;;;1.60;99.90;;;;;;4907350;29;20036;-84
2023/11/28 10:34:36;;;;;;;0.45;0.38;;;1.60;99.90;;;;;;4921377;29;20052;-84
2023/11/28 10:37:03;;;;;;;0.10;0.10;;;1.60;99.90;;;;;;4907055;29;20040;-84
2023/11/28 10:39:29;;;;;;;0.20;0.20;;;1.60;99.90;;;;;;4909307;29;20036;-90
2023/11/28 10:41:56;;;;;;;0.57;0.47;;;1.70;99.90;;;;;;4913135;29;20040;-83
2023/11/28 10:44:24;;;;;;;0.20;0.20;;;1.70;99.90;;;;;;4910654;29;20080;-81
2023/11/28 10:46:55;;;;;;;0.57;0.57;;;1.70;99.90;;;;;;4910426;29;20028;-82
2023/11/28 10:49:22;;;;;;;0.80;0.80;;;1.60;99.90;;;;;;4912769;29;20040;-86
2023/11/28 10:51:55;;;;;;;0.55;0.45;;;1.70;99.90;;;;;;4914047;29;20044;-84
2023/11/28 10:54:25;;;;;;;0.82;0.70;;;1.70;99.90;;;;;;4922714;29;20044;-87
2023/11/28 10:56:56;;;;;;;0.10;0.10;;;1.70;99.90;;;;;;4919706;29;20366;-85
2023/11/28 10:59:36;;;;;;;0.17;0.17;;;1.70;99.90;;;;;;4925434;29;20052;-86
2023/11/28 11:02:06;;;;;;;0.63;0.63;;;1.70;99.90;;;;;;4923028;29;20036;-87
2023/11/28 11:04:33;;;;;;;0.10;0.10;;;1.70;99.90;;;;;;4926477;29;20044;-89
2023/11/28 11:07:00;;;;;;;0.47;0.47;;;1.70;99.90;;;;;;4911590;29;20036;-87
2023/11/28 11:09:29;;;;;;;0.38;0.38;;;1.70;99.90;;;;;;4932936;29;20044;-84
2023/11/28 11:11:56;;;;;;;1.10;0.75;;;1.70;99.90;;;;;;4917472;29;20048;-84
2023/11/28 11:14:44;;;;;;;1.35;0.88;;;1.70;99.90;;;;;;4929431;29;20325;-84
2023/11/28 11:17:43;;;;;;;0.73;0.70;;;1.70;99.90;;;;;;4911022;29;20039;-83
2023/11/28 11:20:11;;;;;;;0.55;0.55;;;1.60;99.90;;;;;;4945704;29;20081;-86
2023/11/28 11:22:44;;;;;;;0.73;0.50;;;1.70;99.90;;;;;;4946800;29;20485;-87
2023/11/28 11:25:11;;;;;;;0.40;0.40;;;1.70;99.90;;;;;;4943460;29;20032;-87
2023/11/28 11:27:37;;;;;;;0.52;0.52;;;1.60;99.90;;;;;;4946273;29;20056;-84
2023/11/28 11:30:04;;;;;;;0.20;0.20;;;1.60;99.90;;;;;;4935348;29;20047;-82
2023/11/28 11:32:34;;;;;;;0.10;0.10;;;1.60;99.90;;;;;;4949302;29;20055;-85
2023/11/28 11:35:04;;;;;;;0.70;0.52;;;1.60;99.90;;;;;;4946208;29;20038;-83
2023/11/28 11:37:31;;;;;;;0.10;0.10;;;1.60;99.40;;;;;;4945606;29;20032;-84
2023/11/28 11:40:00;;;;;;;0.22;0.22;;;1.60;98.70;;;;;;4923929;29;20496;-84
2023/11/28 11:42:27;;;;;;;0.20;0.20;;;1.60;92.20;;;;;;4929431;29;20039;-83
2023/11/28 11:44:56;;;;;;;0.10;0.10;;;1.60;91.70;;;;;;4948873;29;20040;-85
2023/11/28 11:47:27;;;;;;;0.40;0.40;;;1.50;78.80;;;;;;4949867;28;20035;-85
2023/11/28 11:49:56;;;;;;;0.90;0.77;;;1.60;94.80;;;;;;4942163;29;20044;-85
2023/11/28 11:52:26;;;;;;;0.47;0.47;;;1.60;99.90;;;;;;4945530;29;20031;-84
2023/11/28 11:55:09;;;;;;;1.05;0.73;;;1.60;99.90;;;;;;4945518;29;20050;-84
2023/11/28 11:57:39;;;;;;;0.20;0.20;;;1.70;99.90;;;;;;4945512;29;20050;-83
2023/11/28 12:00:13;;;;;;;0.40;0.40;;;1.70;99.90;;;;;;4945854;29;20046;-85
2023/11/28 12:02:40;;;;;;;0.85;0.80;;;1.70;64.40;;;;;;4944668;29;20050;-82
2023/11/28 12:05:09;;;;;;;0.88;0.88;;;1.70;1.00;;;;;;4944750;29;20039;-85
2023/11/28 12:07:35;;;;;;;0.77;0.77;;;1.80;1.00;;;;;;4947665;29;20043;-85
2023/11/28 12:10:07;;;;;;;0.30;0.30;;;1.90;1.00;;;;;;4932758;29;20055;-84
2023/11/28 12:12:33;;;;;;;1.23;1.10;;;1.90;99.90;;;;;;4942539;28;20054;-78
2023/11/28 12:15:00;;;;;;;0.10;0.10;;;1.90;99.90;;;;;;4944731;29;20039;-82
2023/11/28 12:17:26;;;;;;;2.00;1.85;;;1.90;99.90;;;;;;4931318;29;20054;-80
2023/11/28 12:19:53;;;;;;;0.10;0.10;;;2.00;99.90;;;;;;4946375;29;20047;-81
2023/11/28 12:22:19;;;;;;;0.80;0.80;;;1.90;99.90;;;;;;4943017;29;20051;-84
2023/11/28 12:24:45;;;;;;;0.10;0.10;;;2.00;99.90;;;;;;4942373;29;20058;-82
2023/11/28 12:27:11;;;;;;;0.63;0.52;;;2.00;99.90;;;;;;4945320;29;20086;-81
2023/11/28 12:29:39;;;;;;;0.47;0.40;;;2.00;99.90;;;;;;4929820;29;20050;-82
2023/11/28 12:32:05;;;;;;;0.20;0.20;;;2.00;99.90;;;;;;4943722;29;20031;-82
2023/11/28 12:34:32;;;;;;;0.45;0.45;;;2.00;99.90;;;;;;4926838;29;20060;-82
2023/11/28 12:36:59;;;;;;;0.20;0.20;;;2.10;99.90;;;;;;4945599;29;20104;-82
2023/11/28 12:39:27;;;;;;;1.67;1.55;;;2.10;99.90;;;;;;4946726;29;20042;-85
2023/11/28 12:41:57;;;;;;;0.17;0.17;;;2.00;99.90;;;;;;4946007;29;20039;-84
2023/11/28 12:44:31;;;;;;;1.13;0.70;;;2.00;99.90;;;;;;4925988;29;20047;-82
2023/11/28 12:46:59;;;;;;;0.90;0.75;;;2.00;99.90;;;;;;4928184;29;20044;-81
2023/11/28 12:49:27;;;;;;;0.20;0.20;;;2.00;99.90;;;;;;4929111;29;20042;-82
2023/11/28 12:51:57;;;;;;;0.43;0.43;;;2.00;99.90;;;;;;4946965;29;20055;-81
2023/11/28 12:54:25;;;;;;;0.65;0.52;;;2.00;99.90;;;;;;4941750;29;20035;-83
2023/11/28 12:56:55;;;;;;;0.73;0.45;;;2.10;99.90;;;;;;4925603;29;20042;-85